sensor_id;sensor_type;location;lat;lon;timestamp;P1;durP1;ratioP1;P2;durP2;ratioP2
74245;SDS011;62601;51.044;13.788;2022-10-16T00:01:18;16.77;;;14.20;;
74245;SDS011;62601;51.044;13.788;2022-10-16T00:03:39;16.40;;;14.07;;
74245;SDS011;62601;51.044;13.788;2022-10-16T00:06:00;15.60;;;13.67;;
74245;SDS011;62601;51.044;13.788;2022-10-16T00:08:21;16.63;;;14.50;;
74245;SDS011;62601;51.044;13.788;2022-10-16T00:10:42;15.80;;;13.33;;
74245;SDS011;62601;51.044;13.788;2022-10-16T00:13:04;15.90;;;14.20;;
74245;SDS011;62601;51.044;13.788;2022-10-16T00:15:24;15.50;;;13.50;;
74245;SDS011;62601;51.044;13.788;2022-10-16T00:17:44;14.10;;;12.47;;
74245;SDS011;62601;51.044;13.788;2022-10-16T00:20:04;15.27;;;12.90;;
74245;SDS011;62601;51.044;13.788;2022-10-16T00:22:26;16.40;;;13.60;;
74245;SDS011;62601;51.044;13.788;2022-10-16T00:24:50;14.93;;;12.10;;
74245;SDS011;62601;51.044;13.788;2022-10-16T00:27:11;15.23;;;13.63;;
74245;SDS011;62601;51.044;13.788;2022-10-16T00:29:32;15.10;;;12.73;;
74245;SDS011;62601;51.044;13.788;2022-10-16T00:31:53;18.27;;;14.50;;
74245;SDS011;62601;51.044;13.788;2022-10-16T00:34:14;14.37;;;12.87;;
74245;SDS011;62601;51.044;13.788;2022-10-16T00:36:34;15.50;;;13.87;;
74245;SDS011;62601;51.044;13.788;2022-10-16T00:38:55;14.43;;;12.93;;
74245;SDS011;62601;51.044;13.788;2022-10-16T00:41:17;16.47;;;14.50;;
74245;SDS011;62601;51.044;13.788;2022-10-16T00:43:44;15.30;;;13.50;;
74245;SDS011;62601;51.044;13.788;2022-10-16T00:46:08;15.57;;;12.57;;
74245;SDS011;62601;51.044;13.788;2022-10-16T00:48:31;15.57;;;12.33;;
74245;SDS011;62601;51.044;13.788;2022-10-16T00:50:52;15.20;;;13.63;;
74245;SDS011;62601;51.044;13.788;2022-10-16T00:53:14;15.43;;;13.50;;
74245;SDS011;62601;51.044;13.788;2022-10-16T00:55:36;16.70;;;13.90;;
74245;SDS011;62601;51.044;13.788;2022-10-16T00:57:56;16.40;;;14.70;;
74245;SDS011;62601;51.044;13.788;2022-10-16T01:00:20;16.17;;;13.50;;
74245;SDS011;62601;51.044;13.788;2022-10-16T01:02:41;14.60;;;13.10;;
74245;SDS011;62601;51.044;13.788;2022-10-16T01:05:01;13.47;;;11.87;;
74245;SDS011;62601;51.044;13.788;2022-10-16T01:12:38;13.93;;;12.53;;
74245;SDS011;62601;51.044;13.788;2022-10-16T01:15:02;14.40;;;12.90;;
74245;SDS011;62601;51.044;13.788;2022-10-16T01:17:42;14.20;;;12.50;;
74245;SDS011;62601;51.044;13.788;2022-10-16T01:22:38;14.67;;;13.07;;
74245;SDS011;62601;51.044;13.788;2022-10-16T01:25:00;13.37;;;11.97;;
74245;SDS011;62601;51.044;13.788;2022-10-16T01:27:25;14.77;;;12.80;;
74245;SDS011;62601;51.044;13.788;2022-10-16T01:32:37;13.00;;;11.60;;
74245;SDS011;62601;51.044;13.788;2022-10-16T01:34:59;14.00;;;12.50;;
74245;SDS011;62601;51.044;13.788;2022-10-16T01:37:33;13.90;;;12.40;;
74245;SDS011;62601;51.044;13.788;2022-10-16T01:39:55;14.10;;;12.60;;
74245;SDS011;62601;51.044;13.788;2022-10-16T01:42:19;16.17;;;12.40;;
74245;SDS011;62601;51.044;13.788;2022-10-16T01:44:41;15.10;;;13.03;;
74245;SDS011;62601;51.044;13.788;2022-10-16T01:47:01;14.47;;;12.93;;
74245;SDS011;62601;51.044;13.788;2022-10-16T01:49:24;13.60;;;12.20;;
74245;SDS011;62601;51.044;13.788;2022-10-16T01:51:48;13.70;;;12.30;;
74245;SDS011;62601;51.044;13.788;2022-10-16T01:54:09;14.40;;;12.40;;
74245;SDS011;62601;51.044;13.788;2022-10-16T01:56:31;14.33;;;12.80;;
74245;SDS011;62601;51.044;13.788;2022-10-16T02:01:51;16.43;;;13.10;;
74245;SDS011;62601;51.044;13.788;2022-10-16T02:04:23;14.73;;;12.60;;
74245;SDS011;62601;51.044;13.788;2022-10-16T02:06:46;14.90;;;13.30;;
74245;SDS011;62601;51.044;13.788;2022-10-16T02:09:06;16.00;;;14.30;;
74245;SDS011;62601;51.044;13.788;2022-10-16T02:11:28;15.97;;;14.30;;
74245;SDS011;62601;51.044;13.788;2022-10-16T02:13:50;16.87;;;14.47;;
74245;SDS011;62601;51.044;13.788;2022-10-16T02:16:13;16.73;;;14.07;;
74245;SDS011;62601;51.044;13.788;2022-10-16T02:18:35;17.33;;;14.30;;
74245;SDS011;62601;51.044;13.788;2022-10-16T02:23:35;16.73;;;13.70;;
74245;SDS011;62601;51.044;13.788;2022-10-16T02:25:58;18.13;;;14.50;;
74245;SDS011;62601;51.044;13.788;2022-10-16T02:28:27;15.67;;;14.07;;
74245;SDS011;62601;51.044;13.788;2022-10-16T02:30:52;15.97;;;14.37;;
74245;SDS011;62601;51.044;13.788;2022-10-16T02:33:14;18.20;;;15.23;;
74245;SDS011;62601;51.044;13.788;2022-10-16T02:35:37;18.37;;;15.37;;
74245;SDS011;62601;51.044;13.788;2022-10-16T02:37:57;16.17;;;14.30;;
74245;SDS011;62601;51.044;13.788;2022-10-16T02:40:19;17.80;;;15.80;;
74245;SDS011;62601;51.044;13.788;2022-10-16T02:42:41;18.50;;;15.40;;
74245;SDS011;62601;51.044;13.788;2022-10-16T02:45:01;16.37;;;14.73;;
74245;SDS011;62601;51.044;13.788;2022-10-16T02:47:22;16.53;;;14.73;;
74245;SDS011;62601;51.044;13.788;2022-10-16T02:49:44;16.50;;;14.47;;
74245;SDS011;62601;51.044;13.788;2022-10-16T02:52:04;15.40;;;13.70;;
74245;SDS011;62601;51.044;13.788;2022-10-16T02:54:25;17.57;;;15.20;;
74245;SDS011;62601;51.044;13.788;2022-10-16T02:56:46;17.33;;;15.63;;
74245;SDS011;62601;51.044;13.788;2022-10-16T02:59:06;16.67;;;14.97;;
74245;SDS011;62601;51.044;13.788;2022-10-16T03:01:26;17.30;;;14.30;;
74245;SDS011;62601;51.044;13.788;2022-10-16T03:03:46;16.13;;;13.90;;
74245;SDS011;62601;51.044;13.788;2022-10-16T03:06:07;14.27;;;12.83;;
74245;SDS011;62601;51.044;13.788;2022-10-16T03:08:28;15.53;;;13.90;;
74245;SDS011;62601;51.044;13.788;2022-10-16T03:10:48;14.93;;;13.33;;
74245;SDS011;62601;51.044;13.788;2022-10-16T03:13:09;15.17;;;13.57;;
74245;SDS011;62601;51.044;13.788;2022-10-16T03:15:29;16.10;;;13.00;;
74245;SDS011;62601;51.044;13.788;2022-10-16T03:17:49;14.53;;;12.70;;
74245;SDS011;62601;51.044;13.788;2022-10-16T03:20:09;15.03;;;13.43;;
74245;SDS011;62601;51.044;13.788;2022-10-16T03:22:31;13.70;;;12.40;;
74245;SDS011;62601;51.044;13.788;2022-10-16T03:24:52;14.10;;;12.60;;
74245;SDS011;62601;51.044;13.788;2022-10-16T03:27:12;14.73;;;13.10;;
74245;SDS011;62601;51.044;13.788;2022-10-16T03:29:36;15.73;;;14.00;;
74245;SDS011;62601;51.044;13.788;2022-10-16T03:31:58;14.10;;;12.57;;
74245;SDS011;62601;51.044;13.788;2022-10-16T03:34:19;13.43;;;12.00;;
74245;SDS011;62601;51.044;13.788;2022-10-16T03:36:41;14.90;;;13.40;;
74245;SDS011;62601;51.044;13.788;2022-10-16T03:39:02;15.57;;;13.20;;
74245;SDS011;62601;51.044;13.788;2022-10-16T03:41:22;13.90;;;12.50;;
74245;SDS011;62601;51.044;13.788;2022-10-16T03:43:44;15.37;;;13.77;;
74245;SDS011;62601;51.044;13.788;2022-10-16T03:46:05;14.60;;;13.03;;
74245;SDS011;62601;51.044;13.788;2022-10-16T03:48:26;14.87;;;13.30;;
74245;SDS011;62601;51.044;13.788;2022-10-16T03:50:48;14.97;;;13.37;;
74245;SDS011;62601;51.044;13.788;2022-10-16T03:53:09;15.23;;;13.63;;
74245;SDS011;62601;51.044;13.788;2022-10-16T03:55:29;14.33;;;12.90;;
74245;SDS011;62601;51.044;13.788;2022-10-16T03:57:49;17.50;;;14.13;;
74245;SDS011;62601;51.044;13.788;2022-10-16T04:00:10;14.20;;;12.77;;
74245;SDS011;62601;51.044;13.788;2022-10-16T04:02:32;14.77;;;13.27;;
74245;SDS011;62601;51.044;13.788;2022-10-16T04:04:52;16.03;;;14.33;;
74245;SDS011;62601;51.044;13.788;2022-10-16T04:07:12;15.43;;;14.03;;
74245;SDS011;62601;51.044;13.788;2022-10-16T04:09:35;15.50;;;13.90;;
74245;SDS011;62601;51.044;13.788;2022-10-16T04:11:55;15.53;;;14.03;;
74245;SDS011;62601;51.044;13.788;2022-10-16T04:14:16;15.30;;;13.80;;
74245;SDS011;62601;51.044;13.788;2022-10-16T04:16:37;15.13;;;13.73;;
74245;SDS011;62601;51.044;13.788;2022-10-16T04:18:58;15.90;;;14.27;;
74245;SDS011;62601;51.044;13.788;2022-10-16T04:21:18;14.80;;;13.30;;
74245;SDS011;62601;51.044;13.788;2022-10-16T04:23:38;14.80;;;13.30;;
74245;SDS011;62601;51.044;13.788;2022-10-16T04:25:58;15.30;;;13.70;;
74245;SDS011;62601;51.044;13.788;2022-10-16T04:28:20;14.57;;;13.17;;
74245;SDS011;62601;51.044;13.788;2022-10-16T04:30:41;16.37;;;14.60;;
74245;SDS011;62601;51.044;13.788;2022-10-16T04:33:03;15.70;;;14.10;;
74245;SDS011;62601;51.044;13.788;2022-10-16T04:35:24;17.53;;;15.00;;
74245;SDS011;62601;51.044;13.788;2022-10-16T04:37:46;14.87;;;13.40;;
74245;SDS011;62601;51.044;13.788;2022-10-16T04:40:07;15.40;;;13.87;;
74245;SDS011;62601;51.044;13.788;2022-10-16T04:42:29;15.90;;;14.23;;
74245;SDS011;62601;51.044;13.788;2022-10-16T04:44:49;15.17;;;13.67;;
74245;SDS011;62601;51.044;13.788;2022-10-16T04:47:09;16.03;;;14.33;;
74245;SDS011;62601;51.044;13.788;2022-10-16T04:49:29;15.73;;;14.03;;
74245;SDS011;62601;51.044;13.788;2022-10-16T04:51:50;14.80;;;13.30;;
74245;SDS011;62601;51.044;13.788;2022-10-16T04:54:11;15.57;;;13.97;;
74245;SDS011;62601;51.044;13.788;2022-10-16T04:56:31;17.33;;;14.47;;
74245;SDS011;62601;51.044;13.788;2022-10-16T04:58:52;16.00;;;14.30;;
74245;SDS011;62601;51.044;13.788;2022-10-16T05:01:14;15.70;;;14.10;;
74245;SDS011;62601;51.044;13.788;2022-10-16T05:03:34;15.73;;;14.23;;
74245;SDS011;62601;51.044;13.788;2022-10-16T05:05:54;15.33;;;13.83;;
74245;SDS011;62601;51.044;13.788;2022-10-16T05:08:14;14.37;;;12.97;;
74245;SDS011;62601;51.044;13.788;2022-10-16T05:10:36;15.20;;;13.70;;
74245;SDS011;62601;51.044;13.788;2022-10-16T05:12:57;17.50;;;13.87;;
74245;SDS011;62601;51.044;13.788;2022-10-16T05:15:18;14.17;;;12.80;;
74245;SDS011;62601;51.044;13.788;2022-10-16T05:17:39;14.17;;;12.57;;
74245;SDS011;62601;51.044;13.788;2022-10-16T05:20:01;13.30;;;12.00;;
74245;SDS011;62601;51.044;13.788;2022-10-16T05:22:21;14.27;;;12.87;;
74245;SDS011;62601;51.044;13.788;2022-10-16T05:24:41;14.47;;;12.97;;
74245;SDS011;62601;51.044;13.788;2022-10-16T05:27:01;14.57;;;13.20;;
74245;SDS011;62601;51.044;13.788;2022-10-16T05:29:21;14.63;;;13.13;;
74245;SDS011;62601;51.044;13.788;2022-10-16T05:31:41;14.80;;;13.30;;
74245;SDS011;62601;51.044;13.788;2022-10-16T05:34:03;14.73;;;13.33;;
74245;SDS011;62601;51.044;13.788;2022-10-16T05:36:24;16.73;;;15.03;;
74245;SDS011;62601;51.044;13.788;2022-10-16T05:38:46;17.20;;;15.40;;
74245;SDS011;62601;51.044;13.788;2022-10-16T05:41:11;16.50;;;14.80;;
74245;SDS011;62601;51.044;13.788;2022-10-16T05:43:32;14.30;;;12.93;;
74245;SDS011;62601;51.044;13.788;2022-10-16T05:46:26;14.43;;;13.10;;
74245;SDS011;62601;51.044;13.788;2022-10-16T05:48:41;14.27;;;12.87;;
74245;SDS011;62601;51.044;13.788;2022-10-16T05:51:02;15.47;;;13.97;;
74245;SDS011;62601;51.044;13.788;2022-10-16T05:53:23;14.40;;;13.00;;
74245;SDS011;62601;51.044;13.788;2022-10-16T05:55:43;14.60;;;12.40;;
74245;SDS011;62601;51.044;13.788;2022-10-16T05:58:12;17.53;;;15.70;;
74245;SDS011;62601;51.044;13.788;2022-10-16T06:00:33;15.70;;;14.10;;
74245;SDS011;62601;51.044;13.788;2022-10-16T06:02:55;16.33;;;13.37;;
74245;SDS011;62601;51.044;13.788;2022-10-16T06:05:15;15.80;;;14.13;;
74245;SDS011;62601;51.044;13.788;2022-10-16T06:07:35;16.60;;;13.43;;
74245;SDS011;62601;51.044;13.788;2022-10-16T06:09:56;15.30;;;13.80;;
74245;SDS011;62601;51.044;13.788;2022-10-16T06:12:18;14.77;;;13.37;;
74245;SDS011;62601;51.044;13.788;2022-10-16T06:14:39;19.53;;;15.20;;
74245;SDS011;62601;51.044;13.788;2022-10-16T06:17:00;15.17;;;13.60;;
74245;SDS011;62601;51.044;13.788;2022-10-16T06:19:22;15.57;;;14.00;;
74245;SDS011;62601;51.044;13.788;2022-10-16T06:21:46;14.90;;;13.40;;
74245;SDS011;62601;51.044;13.788;2022-10-16T06:24:06;15.57;;;14.10;;
74245;SDS011;62601;51.044;13.788;2022-10-16T06:26:28;16.70;;;13.50;;
74245;SDS011;62601;51.044;13.788;2022-10-16T06:28:50;16.13;;;14.53;;
74245;SDS011;62601;51.044;13.788;2022-10-16T06:31:10;16.73;;;15.00;;
74245;SDS011;62601;51.044;13.788;2022-10-16T06:33:31;15.43;;;13.90;;
74245;SDS011;62601;51.044;13.788;2022-10-16T06:35:52;15.67;;;14.03;;
74245;SDS011;62601;51.044;13.788;2022-10-16T06:38:13;17.73;;;15.63;;
74245;SDS011;62601;51.044;13.788;2022-10-16T06:40:33;20.90;;;16.37;;
74245;SDS011;62601;51.044;13.788;2022-10-16T06:42:56;18.47;;;16.57;;
74245;SDS011;62601;51.044;13.788;2022-10-16T06:45:18;18.63;;;16.67;;
74245;SDS011;62601;51.044;13.788;2022-10-16T06:47:39;17.90;;;16.10;;
74245;SDS011;62601;51.044;13.788;2022-10-16T06:50:01;18.00;;;15.27;;
74245;SDS011;62601;51.044;13.788;2022-10-16T06:52:22;19.30;;;17.30;;
74245;SDS011;62601;51.044;13.788;2022-10-16T06:54:44;17.47;;;15.67;;
74245;SDS011;62601;51.044;13.788;2022-10-16T06:57:05;21.80;;;19.57;;
74245;SDS011;62601;51.044;13.788;2022-10-16T06:59:27;19.03;;;17.10;;
74245;SDS011;62601;51.044;13.788;2022-10-16T07:01:48;20.13;;;18.03;;
74245;SDS011;62601;51.044;13.788;2022-10-16T07:04:08;22.00;;;19.27;;
74245;SDS011;62601;51.044;13.788;2022-10-16T07:06:31;18.40;;;16.50;;
74245;SDS011;62601;51.044;13.788;2022-10-16T07:08:53;18.37;;;16.47;;
74245;SDS011;62601;51.044;13.788;2022-10-16T07:11:16;18.30;;;16.40;;
74245;SDS011;62601;51.044;13.788;2022-10-16T07:13:40;18.43;;;15.77;;
74245;SDS011;62601;51.044;13.788;2022-10-16T07:16:05;18.17;;;16.33;;
74245;SDS011;62601;51.044;13.788;2022-10-16T07:18:25;16.90;;;15.10;;
74245;SDS011;62601;51.044;13.788;2022-10-16T07:20:45;18.17;;;15.77;;
74245;SDS011;62601;51.044;13.788;2022-10-16T07:23:05;18.70;;;16.90;;
74245;SDS011;62601;51.044;13.788;2022-10-16T07:25:25;17.53;;;15.77;;
74245;SDS011;62601;51.044;13.788;2022-10-16T07:27:45;18.07;;;16.30;;
74245;SDS011;62601;51.044;13.788;2022-10-16T07:30:07;17.40;;;15.70;;
74245;SDS011;62601;51.044;13.788;2022-10-16T07:32:29;17.57;;;15.87;;
74245;SDS011;62601;51.044;13.788;2022-10-16T07:34:50;16.03;;;14.43;;
74245;SDS011;62601;51.044;13.788;2022-10-16T07:37:12;17.53;;;15.77;;
74245;SDS011;62601;51.044;13.788;2022-10-16T07:39:33;17.50;;;15.80;;
74245;SDS011;62601;51.044;13.788;2022-10-16T07:41:54;17.13;;;15.50;;
74245;SDS011;62601;51.044;13.788;2022-10-16T07:44:15;18.77;;;16.83;;
74245;SDS011;62601;51.044;13.788;2022-10-16T07:46:36;17.80;;;15.87;;
74245;SDS011;62601;51.044;13.788;2022-10-16T07:48:57;16.33;;;14.73;;
74245;SDS011;62601;51.044;13.788;2022-10-16T07:51:18;15.73;;;14.20;;
74245;SDS011;62601;51.044;13.788;2022-10-16T07:53:39;29.80;;;22.50;;
74245;SDS011;62601;51.044;13.788;2022-10-16T07:55:59;18.40;;;16.47;;
74245;SDS011;62601;51.044;13.788;2022-10-16T07:58:21;17.97;;;16.17;;
74245;SDS011;62601;51.044;13.788;2022-10-16T08:00:41;17.47;;;15.63;;
74245;SDS011;62601;51.044;13.788;2022-10-16T08:03:01;18.40;;;16.60;;
74245;SDS011;62601;51.044;13.788;2022-10-16T08:05:21;17.97;;;16.17;;
74245;SDS011;62601;51.044;13.788;2022-10-16T08:07:41;18.83;;;16.67;;
74245;SDS011;62601;51.044;13.788;2022-10-16T08:10:03;18.20;;;16.40;;
74245;SDS011;62601;51.044;13.788;2022-10-16T08:12:25;16.40;;;14.80;;
74245;SDS011;62601;51.044;13.788;2022-10-16T08:14:46;15.97;;;14.37;;
74245;SDS011;62601;51.044;13.788;2022-10-16T08:17:08;16.07;;;14.47;;
74245;SDS011;62601;51.044;13.788;2022-10-16T08:19:29;15.53;;;14.03;;
74245;SDS011;62601;51.044;13.788;2022-10-16T08:21:50;16.17;;;14.67;;
74245;SDS011;62601;51.044;13.788;2022-10-16T08:24:12;15.13;;;13.73;;
74245;SDS011;62601;51.044;13.788;2022-10-16T08:26:34;14.30;;;12.97;;
74245;SDS011;62601;51.044;13.788;2022-10-16T08:28:55;15.57;;;14.03;;
74245;SDS011;62601;51.044;13.788;2022-10-16T08:31:18;14.97;;;13.67;;
74245;SDS011;62601;51.044;13.788;2022-10-16T08:33:40;14.30;;;12.80;;
74245;SDS011;62601;51.044;13.788;2022-10-16T08:36:02;13.73;;;12.40;;
74245;SDS011;62601;51.044;13.788;2022-10-16T08:38:23;14.30;;;13.00;;
74245;SDS011;62601;51.044;13.788;2022-10-16T08:40:44;13.80;;;12.40;;
74245;SDS011;62601;51.044;13.788;2022-10-16T08:43:27;12.80;;;11.43;;
74245;SDS011;62601;51.044;13.788;2022-10-16T08:46:05;12.30;;;11.23;;
74245;SDS011;62601;51.044;13.788;2022-10-16T08:51:07;15.00;;;13.50;;
74245;SDS011;62601;51.044;13.788;2022-10-16T08:53:40;11.20;;;10.23;;
74245;SDS011;62601;51.044;13.788;2022-10-16T08:56:04;10.67;;;9.77;;
74245;SDS011;62601;51.044;13.788;2022-10-16T08:58:30;12.93;;;11.73;;
74245;SDS011;62601;51.044;13.788;2022-10-16T09:01:01;12.80;;;11.50;;
74245;SDS011;62601;51.044;13.788;2022-10-16T09:16:37;17.47;;;15.33;;
74245;SDS011;62601;51.044;13.788;2022-10-16T09:19:23;14.67;;;13.27;;
74245;SDS011;62601;51.044;13.788;2022-10-16T09:21:55;12.50;;;11.30;;
74245;SDS011;62601;51.044;13.788;2022-10-16T09:24:23;12.40;;;11.33;;
74245;SDS011;62601;51.044;13.788;2022-10-16T09:26:45;11.30;;;10.30;;
74245;SDS011;62601;51.044;13.788;2022-10-16T09:29:08;12.60;;;11.50;;
74245;SDS011;62601;51.044;13.788;2022-10-16T09:31:32;13.00;;;11.60;;
74245;SDS011;62601;51.044;13.788;2022-10-16T09:33:57;12.47;;;11.30;;
74245;SDS011;62601;51.044;13.788;2022-10-16T09:36:20;11.87;;;10.83;;
74245;SDS011;62601;51.044;13.788;2022-10-16T09:38:41;11.63;;;10.47;;
74245;SDS011;62601;51.044;13.788;2022-10-16T09:41:21;13.87;;;12.67;;
74245;SDS011;62601;51.044;13.788;2022-10-16T09:43:46;12.27;;;11.17;;
74245;SDS011;62601;51.044;13.788;2022-10-16T09:46:19;12.97;;;11.77;;
74245;SDS011;62601;51.044;13.788;2022-10-16T09:48:47;12.10;;;10.90;;
74245;SDS011;62601;51.044;13.788;2022-10-16T09:51:30;12.33;;;11.23;;
74245;SDS011;62601;51.044;13.788;2022-10-16T09:53:57;12.57;;;11.30;;
74245;SDS011;62601;51.044;13.788;2022-10-16T09:56:21;12.20;;;11.10;;
74245;SDS011;62601;51.044;13.788;2022-10-16T09:58:49;10.83;;;9.73;;
74245;SDS011;62601;51.044;13.788;2022-10-16T10:01:14;7.13;;;6.53;;
74245;SDS011;62601;51.044;13.788;2022-10-16T10:03:35;7.50;;;6.80;;
74245;SDS011;62601;51.044;13.788;2022-10-16T10:05:57;8.37;;;7.63;;
74245;SDS011;62601;51.044;13.788;2022-10-16T10:08:19;8.10;;;7.30;;
74245;SDS011;62601;51.044;13.788;2022-10-16T10:10:41;7.40;;;6.80;;
74245;SDS011;62601;51.044;13.788;2022-10-16T10:13:04;6.17;;;5.67;;
74245;SDS011;62601;51.044;13.788;2022-10-16T10:15:25;6.60;;;6.00;;
74245;SDS011;62601;51.044;13.788;2022-10-16T10:17:55;6.23;;;5.73;;
74245;SDS011;62601;51.044;13.788;2022-10-16T10:22:45;4.57;;;4.17;;
74245;SDS011;62601;51.044;13.788;2022-10-16T10:30:29;5.40;;;5.00;;
74245;SDS011;62601;51.044;13.788;2022-10-16T10:33:08;5.53;;;5.03;;
74245;SDS011;62601;51.044;13.788;2022-10-16T10:35:42;5.23;;;4.73;;
74245;SDS011;62601;51.044;13.788;2022-10-16T10:40:52;4.77;;;4.30;;
74245;SDS011;62601;51.044;13.788;2022-10-16T10:44:05;4.20;;;3.80;;
74245;SDS011;62601;51.044;13.788;2022-10-16T10:46:04;4.10;;;3.67;;
74245;SDS011;62601;51.044;13.788;2022-10-16T10:51:09;2.27;;;2.00;;
74245;SDS011;62601;51.044;13.788;2022-10-16T10:56:20;4.97;;;4.47;;
74245;SDS011;62601;51.044;13.788;2022-10-16T10:58:53;7.77;;;7.03;;
74245;SDS011;62601;51.044;13.788;2022-10-16T11:04:10;13.00;;;7.93;;
74245;SDS011;62601;51.044;13.788;2022-10-16T11:06:47;2.63;;;2.37;;
74245;SDS011;62601;51.044;13.788;2022-10-16T11:09:17;1.30;;;1.20;;
74245;SDS011;62601;51.044;13.788;2022-10-16T11:11:50;1.30;;;0.87;;
74245;SDS011;62601;51.044;13.788;2022-10-16T11:14:22;1.70;;;1.60;;
74245;SDS011;62601;51.044;13.788;2022-10-16T11:16:54;2.03;;;1.13;;
74245;SDS011;62601;51.044;13.788;2022-10-16T11:22:01;0.80;;;0.70;;
74245;SDS011;62601;51.044;13.788;2022-10-16T11:24:23;0.83;;;0.80;;
74245;SDS011;62601;51.044;13.788;2022-10-16T11:26:52;1.33;;;0.87;;
74245;SDS011;62601;51.044;13.788;2022-10-16T11:29:17;1.53;;;0.90;;
74245;SDS011;62601;51.044;13.788;2022-10-16T11:31:40;1.13;;;0.90;;
74245;SDS011;62601;51.044;13.788;2022-10-16T11:36:45;0.80;;;0.80;;
74245;SDS011;62601;51.044;13.788;2022-10-16T11:39:26;0.80;;;0.80;;
74245;SDS011;62601;51.044;13.788;2022-10-16T11:41:51;0.70;;;0.60;;
74245;SDS011;62601;51.044;13.788;2022-10-16T11:46:37;1.20;;;0.80;;
74245;SDS011;62601;51.044;13.788;2022-10-16T11:49:06;0.73;;;0.70;;
74245;SDS011;62601;51.044;13.788;2022-10-16T11:57:03;1.57;;;0.70;;
74245;SDS011;62601;51.044;13.788;2022-10-16T11:59:35;0.80;;;0.80;;
74245;SDS011;62601;51.044;13.788;2022-10-16T12:07:04;1.53;;;0.70;;
74245;SDS011;62601;51.044;13.788;2022-10-16T12:09:31;0.90;;;0.80;;
74245;SDS011;62601;51.044;13.788;2022-10-16T12:11:56;0.70;;;0.70;;
74245;SDS011;62601;51.044;13.788;2022-10-16T12:14:18;0.50;;;0.50;;
74245;SDS011;62601;51.044;13.788;2022-10-16T12:16:56;0.70;;;0.70;;
74245;SDS011;62601;51.044;13.788;2022-10-16T12:19:17;0.90;;;0.80;;
74245;SDS011;62601;51.044;13.788;2022-10-16T12:21:38;0.83;;;0.83;;
74245;SDS011;62601;51.044;13.788;2022-10-16T12:24:00;1.57;;;0.90;;
74245;SDS011;62601;51.044;13.788;2022-10-16T12:26:24;1.23;;;1.13;;
74245;SDS011;62601;51.044;13.788;2022-10-16T12:28:45;0.80;;;0.80;;
74245;SDS011;62601;51.044;13.788;2022-10-16T12:31:07;0.93;;;0.70;;
74245;SDS011;62601;51.044;13.788;2022-10-16T12:33:30;0.83;;;0.70;;
74245;SDS011;62601;51.044;13.788;2022-10-16T12:35:51;1.33;;;0.80;;
74245;SDS011;62601;51.044;13.788;2022-10-16T12:38:58;1.03;;;0.77;;
74245;SDS011;62601;51.044;13.788;2022-10-16T12:45:41;0.70;;;0.70;;
74245;SDS011;62601;51.044;13.788;2022-10-16T12:48:04;1.87;;;0.80;;
74245;SDS011;62601;51.044;13.788;2022-10-16T12:50:36;0.80;;;0.80;;
74245;SDS011;62601;51.044;13.788;2022-10-16T12:53:04;1.13;;;1.03;;
74245;SDS011;62601;51.044;13.788;2022-10-16T12:55:42;1.00;;;0.80;;
74245;SDS011;62601;51.044;13.788;2022-10-16T12:58:13;1.57;;;0.90;;
74245;SDS011;62601;51.044;13.788;2022-10-16T13:00:50;1.53;;;0.77;;
74245;SDS011;62601;51.044;13.788;2022-10-16T13:10:56;0.87;;;0.87;;
74245;SDS011;62601;51.044;13.788;2022-10-16T13:13:30;1.10;;;0.77;;
74245;SDS011;62601;51.044;13.788;2022-10-16T13:29:15;0.90;;;0.90;;
74245;SDS011;62601;51.044;13.788;2022-10-16T13:31:38;1.00;;;0.90;;
74245;SDS011;62601;51.044;13.788;2022-10-16T13:34:00;0.80;;;0.80;;
74245;SDS011;62601;51.044;13.788;2022-10-16T13:36:34;1.10;;;1.00;;
74245;SDS011;62601;51.044;13.788;2022-10-16T13:39:14;1.10;;;1.00;;
74245;SDS011;62601;51.044;13.788;2022-10-16T13:41:36;0.80;;;0.80;;
74245;SDS011;62601;51.044;13.788;2022-10-16T13:43:57;2.43;;;1.00;;
74245;SDS011;62601;51.044;13.788;2022-10-16T13:46:21;0.90;;;0.90;;
74245;SDS011;62601;51.044;13.788;2022-10-16T13:48:44;2.80;;;1.00;;
74245;SDS011;62601;51.044;13.788;2022-10-16T13:51:11;2.47;;;1.20;;
74245;SDS011;62601;51.044;13.788;2022-10-16T13:53:36;1.83;;;1.60;;
74245;SDS011;62601;51.044;13.788;2022-10-16T13:55:57;2.00;;;1.20;;
74245;SDS011;62601;51.044;13.788;2022-10-16T13:58:18;1.47;;;1.30;;
74245;SDS011;62601;51.044;13.788;2022-10-16T14:00:38;1.87;;;1.60;;
74245;SDS011;62601;51.044;13.788;2022-10-16T14:03:01;1.37;;;1.20;;
74245;SDS011;62601;51.044;13.788;2022-10-16T14:05:22;1.47;;;1.20;;
74245;SDS011;62601;51.044;13.788;2022-10-16T14:07:42;1.63;;;1.30;;
74245;SDS011;62601;51.044;13.788;2022-10-16T14:10:04;2.77;;;1.70;;
74245;SDS011;62601;51.044;13.788;2022-10-16T14:12:25;1.87;;;1.37;;
74245;SDS011;62601;51.044;13.788;2022-10-16T14:14:46;3.13;;;2.20;;
74245;SDS011;62601;51.044;13.788;2022-10-16T14:17:30;1.83;;;1.73;;
74245;SDS011;62601;51.044;13.788;2022-10-16T14:19:54;2.37;;;1.80;;
74245;SDS011;62601;51.044;13.788;2022-10-16T14:22:28;2.03;;;1.73;;
74245;SDS011;62601;51.044;13.788;2022-10-16T14:24:50;1.60;;;1.50;;
74245;SDS011;62601;51.044;13.788;2022-10-16T14:32:32;3.13;;;1.87;;
74245;SDS011;62601;51.044;13.788;2022-10-16T14:34:53;1.90;;;1.80;;
74245;SDS011;62601;51.044;13.788;2022-10-16T14:37:27;1.53;;;1.40;;
74245;SDS011;62601;51.044;13.788;2022-10-16T14:39:49;2.63;;;1.63;;
74245;SDS011;62601;51.044;13.788;2022-10-16T14:42:18;2.67;;;2.33;;
74245;SDS011;62601;51.044;13.788;2022-10-16T14:44:41;2.60;;;2.40;;
74245;SDS011;62601;51.044;13.788;2022-10-16T14:47:09;3.00;;;2.70;;
74245;SDS011;62601;51.044;13.788;2022-10-16T14:49:32;3.20;;;2.20;;
74245;SDS011;62601;51.044;13.788;2022-10-16T14:51:53;1.90;;;1.80;;
74245;SDS011;62601;51.044;13.788;2022-10-16T14:54:14;4.50;;;2.40;;
74245;SDS011;62601;51.044;13.788;2022-10-16T14:56:46;2.57;;;2.20;;
74245;SDS011;62601;51.044;13.788;2022-10-16T14:59:09;3.73;;;3.43;;
74245;SDS011;62601;51.044;13.788;2022-10-16T15:01:34;3.80;;;3.33;;
74245;SDS011;62601;51.044;13.788;2022-10-16T15:03:55;3.27;;;2.60;;
74245;SDS011;62601;51.044;13.788;2022-10-16T15:06:15;2.73;;;2.50;;
74245;SDS011;62601;51.044;13.788;2022-10-16T15:08:37;3.80;;;3.50;;
74245;SDS011;62601;51.044;13.788;2022-10-16T15:10:58;4.73;;;3.90;;
74245;SDS011;62601;51.044;13.788;2022-10-16T15:13:19;5.07;;;3.03;;
74245;SDS011;62601;51.044;13.788;2022-10-16T15:15:42;3.73;;;3.10;;
74245;SDS011;62601;51.044;13.788;2022-10-16T15:18:03;2.70;;;2.50;;
74245;SDS011;62601;51.044;13.788;2022-10-16T15:20:25;5.10;;;2.80;;
74245;SDS011;62601;51.044;13.788;2022-10-16T15:22:46;4.20;;;2.90;;
74245;SDS011;62601;51.044;13.788;2022-10-16T15:25:13;4.40;;;2.80;;
74245;SDS011;62601;51.044;13.788;2022-10-16T15:27:47;2.83;;;2.63;;
74245;SDS011;62601;51.044;13.788;2022-10-16T15:30:09;2.97;;;2.73;;
74245;SDS011;62601;51.044;13.788;2022-10-16T15:32:30;2.83;;;2.43;;
74245;SDS011;62601;51.044;13.788;2022-10-16T15:34:53;3.10;;;2.80;;